Time;durP1;ratioP1;P1;durP2;ratioP2;P2;SDS_P1;SDS_P2;PMS_P1;PMS_P2;Temp;Humidity;BMP_temperature;BMP_pressure;BME280_temperature;BME280_humidity;BME280_pressure;Samples;Min_cycle;Max_cycle;Signal;HPM_P1;HPM_P2
2024/03/28 05:05:35;;;;;;;0.52;0.52;;;4.10;99.90;;;;;;6003241;23;20233;31
2024/03/28 05:08:01;;;;;;;0.40;0.40;;;3.90;99.90;;;;;;4878035;29;20232;-61
2024/03/28 05:10:27;;;;;;;0.40;0.40;;;3.80;99.90;;;;;;4880378;29;20171;-60
2024/03/28 05:12:52;;;;;;;0.40;0.40;;;3.70;99.90;;;;;;4880215;29;20452;-59
2024/03/28 05:15:18;;;;;;;0.50;0.50;;;3.60;99.90;;;;;;4879960;29;20417;-60
2024/03/28 05:17:43;;;;;;;0.40;0.40;;;3.60;99.90;;;;;;4880159;29;20185;-60
2024/03/28 05:20:12;;;;;;;0.30;0.30;;;3.50;99.90;;;;;;4880147;29;20660;-60
2024/03/28 05:22:38;;;;;;;0.38;0.38;;;3.50;99.90;;;;;;4880006;29;20209;-60
2024/03/28 05:25:04;;;;;;;0.40;0.40;;;3.70;99.90;;;;;;4879731;29;20711;-61
2024/03/28 05:27:33;;;;;;;0.40;0.40;;;3.90;99.90;;;;;;4880017;29;20428;-60
2024/03/28 05:29:59;;;;;;;0.50;0.50;;;4.20;99.90;;;;;;4894256;29;20253;-60
2024/03/28 05:32:25;;;;;;;0.40;0.40;;;4.50;99.90;;;;;;4880201;29;20204;-59
2024/03/28 05:34:50;;;;;;;0.50;0.50;;;4.80;99.90;;;;;;4879480;29;20181;-62
2024/03/28 05:37:16;;;;;;;0.40;0.40;;;5.10;99.90;;;;;;4879282;29;20273;-60
2024/03/28 05:39:41;;;;;;;0.40;0.40;;;5.30;99.90;;;;;;4880131;29;20186;-61
2024/03/28 05:42:07;;;;;;;0.30;0.30;;;5.40;99.90;;;;;;4879912;29;20190;-62
2024/03/28 05:44:33;;;;;;;0.40;0.40;;;5.50;99.90;;;;;;4879797;29;20250;-60
2024/03/28 05:46:59;;;;;;;0.40;0.40;;;5.60;99.90;;;;;;4879486;29;20554;-62
2024/03/28 05:49:24;;;;;;;0.43;0.43;;;5.70;99.90;;;;;;4879739;29;20184;-60
2024/03/28 05:51:50;;;;;;;0.40;0.40;;;5.60;99.90;;;;;;4879628;29;20174;-59
2024/03/28 05:54:15;;;;;;;0.40;0.40;;;5.60;99.90;;;;;;4879546;29;20174;-59
2024/03/28 05:56:41;;;;;;;0.40;0.40;;;5.60;99.90;;;;;;4879443;29;20244;-61
2024/03/28 05:59:06;;;;;;;0.40;0.40;;;5.60;99.90;;;;;;4879697;29;20172;-59
2024/03/28 06:01:32;;;;;;;0.30;0.30;;;5.90;99.90;;;;;;4879715;29;20187;-60
2024/03/28 06:03:58;;;;;;;0.30;0.30;;;6.30;99.90;;;;;;4879555;29;20181;-62
2024/03/28 06:06:24;;;;;;;0.50;0.50;;;6.70;99.90;;;;;;4878860;29;20503;-61
2024/03/28 06:08:49;;;;;;;0.47;0.47;;;7.20;99.90;;;;;;4879509;29;20171;-59
2024/03/28 06:11:15;;;;;;;0.30;0.30;;;7.40;99.90;;;;;;4878835;29;20685;-62
2024/03/28 06:13:41;;;;;;;0.97;0.97;;;7.60;99.90;;;;;;4879414;29;20211;-60
2024/03/28 06:16:06;;;;;;;0.40;0.40;;;7.90;99.90;;;;;;4878888;29;20206;-59
2024/03/28 06:18:32;;;;;;;0.43;0.43;;;8.10;99.90;;;;;;4879191;29;20172;-61
2024/03/28 06:21:05;;;;;;;0.38;0.38;;;8.30;99.90;;;;;;4879049;29;20625;-61
2024/03/28 06:23:31;;;;;;;0.40;0.40;;;8.50;99.90;;;;;;4879494;29;20176;-62
2024/03/28 06:26:01;;;;;;;0.35;0.35;;;8.80;99.90;;;;;;4879088;29;20195;-61
2024/03/28 06:28:27;;;;;;;0.30;0.30;;;8.90;99.90;;;;;;4893538;29;20707;-61
2024/03/28 06:30:56;;;;;;;0.30;0.30;;;8.90;99.90;;;;;;4879287;29;20508;-61
2024/03/28 06:33:28;;;;;;;0.30;0.30;;;9.20;99.90;;;;;;4879246;29;20221;-62
2024/03/28 06:35:55;;;;;;;0.40;0.40;;;9.40;99.90;;;;;;4878972;29;20880;-60
2024/03/28 06:38:20;;;;;;;0.30;0.30;;;9.40;99.90;;;;;;4879221;29;20731;-61
2024/03/28 06:40:46;;;;;;;0.30;0.30;;;9.30;99.90;;;;;;4879274;29;20412;-60
2024/03/28 06:43:14;;;;;;;0.30;0.30;;;9.10;99.90;;;;;;4879200;29;20189;-62
2024/03/28 06:45:40;;;;;;;0.73;0.73;;;8.80;99.90;;;;;;4877483;29;20473;-61
2024/03/28 06:48:06;;;;;;;0.63;0.63;;;8.60;99.90;;;;;;4893195;29;20433;-60
2024/03/28 06:50:31;;;;;;;0.40;0.40;;;8.50;99.90;;;;;;4879128;29;20217;-61
2024/03/28 06:52:59;;;;;;;0.30;0.30;;;8.40;99.90;;;;;;4879074;29;20978;-62
2024/03/28 06:55:26;;;;;;;0.32;0.32;;;8.20;99.90;;;;;;4878666;29;20184;-61
2024/03/28 06:57:52;;;;;;;0.40;0.40;;;8.10;99.90;;;;;;4879139;29;20180;-59
2024/03/28 07:00:19;;;;;;;0.30;0.30;;;8.10;99.90;;;;;;4879093;29;20190;-62
2024/03/28 07:02:45;;;;;;;0.32;0.32;;;8.10;99.90;;;;;;4879073;29;20212;-60
2024/03/28 07:05:10;;;;;;;0.30;0.30;;;8.10;99.90;;;;;;4878741;29;20176;-62
2024/03/28 07:07:36;;;;;;;0.40;0.40;;;8.00;99.90;;;;;;4878969;29;20302;-59
2024/03/28 07:10:01;;;;;;;0.30;0.30;;;7.90;99.90;;;;;;4879038;29;20645;-62
2024/03/28 07:12:27;;;;;;;0.30;0.30;;;7.80;99.90;;;;;;4878652;29;20207;-59
2024/03/28 07:14:53;;;;;;;0.30;0.30;;;7.80;99.90;;;;;;4878365;29;20665;-61
2024/03/28 07:17:18;;;;;;;0.40;0.40;;;7.80;99.90;;;;;;4878744;29;20206;-60
2024/03/28 07:19:44;;;;;;;0.30;0.30;;;7.60;99.90;;;;;;4878909;29;20186;-62
2024/03/28 07:22:10;;;;;;;0.30;0.30;;;7.60;99.90;;;;;;4880468;29;20187;-59
2024/03/28 07:24:35;;;;;;;0.30;0.30;;;7.50;99.90;;;;;;4882339;29;20398;-58
2024/03/28 07:27:02;;;;;;;0.30;0.30;;;7.40;99.90;;;;;;4881704;29;20766;-61
2024/03/28 07:29:28;;;;;;;0.30;0.30;;;7.40;99.90;;;;;;4882170;29;20179;-59
2024/03/28 07:31:53;;;;;;;0.37;0.37;;;7.40;99.90;;;;;;4881849;29;20178;-61
2024/03/28 07:34:19;;;;;;;0.30;0.30;;;7.50;99.90;;;;;;4881717;29;20411;-61
2024/03/28 07:36:44;;;;;;;0.30;0.30;;;7.40;99.90;;;;;;4895812;29;20206;-62
2024/03/28 07:39:11;;;;;;;0.30;0.30;;;7.50;99.90;;;;;;4881903;29;20181;-60
2024/03/28 07:41:37;;;;;;;0.40;0.40;;;7.40;99.90;;;;;;4895835;29;20183;-62
2024/03/28 07:44:03;;;;;;;0.40;0.40;;;7.50;99.90;;;;;;4881649;29;20179;-61
2024/03/28 07:46:29;;;;;;;0.40;0.40;;;7.50;99.90;;;;;;4881299;29;20542;-62
2024/03/28 07:48:55;;;;;;;0.32;0.32;;;7.50;99.90;;;;;;4881500;29;20428;-61
2024/03/28 07:51:21;;;;;;;0.30;0.30;;;7.50;99.90;;;;;;4881736;29;20194;-60
2024/03/28 07:53:46;;;;;;;0.30;0.30;;;7.50;99.90;;;;;;4881697;29;20297;-60
2024/03/28 07:56:12;;;;;;;0.30;0.30;;;7.60;99.90;;;;;;4881243;29;20635;-60
2024/03/28 07:58:37;;;;;;;0.40;0.40;;;7.70;99.90;;;;;;4881725;29;20175;-62
2024/03/28 08:01:07;;;;;;;0.30;0.30;;;7.80;99.90;;;;;;4881747;29;20614;-63
2024/03/28 08:03:34;;;;;;;0.30;0.30;;;7.90;99.90;;;;;;4881535;29;20219;-61
2024/03/28 08:05:59;;;;;;;0.30;0.30;;;8.10;99.90;;;;;;4881364;29;20202;-60
2024/03/28 08:08:25;;;;;;;0.30;0.30;;;8.20;99.90;;;;;;4883449;29;20278;-58
2024/03/28 08:10:51;;;;;;;0.40;0.40;;;8.30;99.90;;;;;;4889606;29;20671;-61
2024/03/28 08:13:16;;;;;;;0.30;0.30;;;8.40;99.90;;;;;;4887730;29;20207;-63
2024/03/28 08:15:42;;;;;;;0.30;0.30;;;8.40;99.90;;;;;;4888442;29;20240;-60
2024/03/28 08:18:07;;;;;;;0.30;0.30;;;8.40;99.90;;;;;;4890662;29;20634;-60
2024/03/28 08:20:33;;;;;;;0.30;0.30;;;8.40;99.90;;;;;;4887465;29;20179;-61
2024/03/28 08:22:59;;;;;;;0.33;0.33;;;8.40;99.90;;;;;;4901810;29;20184;-61
2024/03/28 08:25:25;;;;;;;0.30;0.30;;;8.40;99.90;;;;;;4883736;29;20176;-62
2024/03/28 08:27:51;;;;;;;0.40;0.40;;;8.50;99.90;;;;;;4881119;29;20183;-62
2024/03/28 08:30:19;;;;;;;0.40;0.40;;;8.40;99.90;;;;;;4881416;29;20179;-62
2024/03/28 08:32:45;;;;;;;0.40;0.40;;;8.50;99.90;;;;;;4881018;29;20546;-61
2024/03/28 08:35:11;;;;;;;0.30;0.30;;;8.50;99.90;;;;;;4882532;29;20187;-62
2024/03/28 08:37:39;;;;;;;0.30;0.30;;;8.60;99.90;;;;;;4900407;29;20483;-59
2024/03/28 08:40:09;;;;;;;0.30;0.30;;;8.60;99.90;;;;;;4885274;29;20423;-61
2024/03/28 08:42:39;;;;;;;0.30;0.30;;;8.60;99.90;;;;;;4899034;29;20171;-60
2024/03/28 08:45:08;;;;;;;0.35;0.35;;;8.70;99.90;;;;;;4883343;29;20220;-61
2024/03/28 08:47:35;;;;;;;0.32;0.32;;;8.70;99.90;;;;;;4896364;29;20704;-60
2024/03/28 08:50:03;;;;;;;0.30;0.30;;;8.70;99.90;;;;;;4880720;29;20749;-62
2024/03/28 08:52:29;;;;;;;0.40;0.40;;;8.80;99.90;;;;;;4880698;29;20249;-61
2024/03/28 08:54:56;;;;;;;0.40;0.40;;;8.80;99.90;;;;;;4880740;29;20199;-60
2024/03/28 08:57:22;;;;;;;0.85;0.80;;;8.80;99.90;;;;;;4880162;29;20447;-59
2024/03/28 08:59:47;;;;;;;0.35;0.35;;;8.90;99.90;;;;;;4880954;29;20519;-61
2024/03/28 09:02:14;;;;;;;0.80;0.80;;;8.90;99.90;;;;;;4880728;29;20259;-59
2024/03/28 09:04:40;;;;;;;0.30;0.30;;;9.00;99.90;;;;;;4880284;29;20192;-60
2024/03/28 09:07:05;;;;;;;0.30;0.30;;;9.10;99.90;;;;;;4880123;29;20215;-61
2024/03/28 09:09:32;;;;;;;0.30;0.30;;;9.10;99.90;;;;;;4880404;29;20186;-62
2024/03/28 09:11:58;;;;;;;0.30;0.30;;;9.20;99.90;;;;;;4880245;29;20215;-62
2024/03/28 09:14:23;;;;;;;0.40;0.40;;;9.30;99.90;;;;;;4880117;29;20229;-59
2024/03/28 09:16:49;;;;;;;0.30;0.30;;;9.40;99.90;;;;;;4879833;29;20437;-61
2024/03/28 09:19:15;;;;;;;0.30;0.30;;;9.50;99.90;;;;;;4880092;29;20413;-60
2024/03/28 09:21:40;;;;;;;0.30;0.20;;;9.50;99.90;;;;;;4879966;29;20679;-62
2024/03/28 09:24:09;;;;;;;0.33;0.33;;;9.60;99.90;;;;;;4879844;29;20233;-60
2024/03/28 09:26:35;;;;;;;0.30;0.30;;;9.70;99.90;;;;;;4893914;29;20684;-61
2024/03/28 09:29:00;;;;;;;0.30;0.30;;;9.70;99.90;;;;;;4879953;29;20190;-59
2024/03/28 09:31:29;;;;;;;0.40;0.40;;;9.80;99.90;;;;;;4879953;29;20266;-63
2024/03/28 09:33:55;;;;;;;0.30;0.30;;;9.80;99.90;;;;;;4879657;29;20207;-60
2024/03/28 09:36:20;;;;;;;0.50;0.50;;;9.90;99.90;;;;;;4877908;29;20276;-63
2024/03/28 09:38:50;;;;;;;0.33;0.33;;;9.90;99.90;;;;;;4879814;29;20177;-61
2024/03/28 09:41:29;;;;;;;0.30;0.30;;;10.00;99.90;;;;;;4879565;29;20180;-60
2024/03/28 09:44:10;;;;;;;0.30;0.30;;;10.00;99.90;;;;;;4879542;29;20252;-61
2024/03/28 09:46:36;;;;;;;0.30;0.30;;;10.10;99.90;;;;;;4878564;29;20437;-63
2024/03/28 09:49:06;;;;;;;0.30;0.30;;;10.10;99.90;;;;;;4879661;29;20563;-60
2024/03/28 09:51:32;;;;;;;0.35;0.35;;;10.10;99.90;;;;;;4879615;29;20176;-63
2024/03/28 09:53:58;;;;;;;0.30;0.30;;;10.10;99.90;;;;;;4894181;29;20702;-62
2024/03/28 09:56:24;;;;;;;0.30;0.30;;;10.10;99.90;;;;;;4879050;29;20439;-62
2024/03/28 09:58:51;;;;;;;0.30;0.30;;;10.20;99.90;;;;;;4879663;29;20469;-61
2024/03/28 10:01:17;;;;;;;0.30;0.20;;;10.20;99.90;;;;;;4879225;29;20427;-61
2024/03/28 10:03:50;;;;;;;0.30;0.30;;;10.30;99.90;;;;;;4878371;29;20434;-63
2024/03/28 10:06:16;;;;;;;0.50;0.50;;;10.40;99.90;;;;;;4879225;29;20451;-60
2024/03/28 10:08:42;;;;;;;0.30;0.30;;;10.50;99.90;;;;;;4879780;29;20738;-61
2024/03/28 10:11:08;;;;;;;0.30;0.30;;;10.60;99.90;;;;;;4879414;29;20219;-62
2024/03/28 10:13:38;;;;;;;0.40;0.40;;;10.70;99.90;;;;;;4879589;29;20463;-62
2024/03/28 10:16:12;;;;;;;0.30;0.30;;;10.80;99.90;;;;;;4878995;29;20242;-60
2024/03/28 10:18:38;;;;;;;0.30;0.30;;;10.80;99.90;;;;;;4879262;29;20407;-61
2024/03/28 10:21:04;;;;;;;0.30;0.30;;;11.10;99.90;;;;;;4879399;29;20410;-62
2024/03/28 10:23:31;;;;;;;0.30;0.30;;;11.20;99.90;;;;;;4893509;29;20428;-62
2024/03/28 10:25:58;;;;;;;0.40;0.40;;;11.20;99.90;;;;;;4878871;29;20434;-62
2024/03/28 10:28:31;;;;;;;0.30;0.30;;;11.30;99.90;;;;;;4879192;29;20420;-62
2024/03/28 10:30:59;;;;;;;0.30;0.30;;;11.30;99.90;;;;;;4879549;29;20867;-59
2024/03/28 10:33:25;;;;;;;0.30;0.30;;;11.40;99.90;;;;;;4879021;29;20472;-64
2024/03/28 10:36:01;;;;;;;0.30;0.30;;;11.50;99.90;;;;;;4878864;29;20466;-61
2024/03/28 10:38:27;;;;;;;0.30;0.30;;;11.60;99.90;;;;;;4893716;29;20599;-63
2024/03/28 10:40:55;;;;;;;0.40;0.40;;;11.60;99.90;;;;;;4879200;29;20450;-60
2024/03/28 10:43:24;;;;;;;0.30;0.30;;;11.60;99.90;;;;;;4893208;29;20432;-62
2024/03/28 10:45:52;;;;;;;0.60;0.60;;;11.70;99.90;;;;;;4878678;29;20449;-60
2024/03/28 10:48:18;;;;;;;0.30;0.30;;;11.80;99.90;;;;;;4878903;29;20434;-62
2024/03/28 10:50:50;;;;;;;0.30;0.30;;;11.90;99.90;;;;;;4878984;29;20416;-61
2024/03/28 10:53:29;;;;;;;0.30;0.30;;;12.00;99.90;;;;;;4878878;29;20690;-63
2024/03/28 10:56:24;;;;;;;0.33;0.33;;;12.10;99.90;;;;;;4878375;29;20909;-61
2024/03/28 10:58:54;;;;;;;0.30;0.30;;;12.40;99.50;;;;;;4874407;29;20588;-61
2024/03/28 11:01:22;;;;;;;0.30;0.30;;;12.60;99.90;;;;;;4882286;29;20639;-62
2024/03/28 11:03:49;;;;;;;0.30;0.30;;;12.80;98.30;;;;;;4882392;29;20434;-63
2024/03/28 11:06:17;;;;;;;0.30;0.30;;;12.90;97.30;;;;;;4881826;29;20433;-61
2024/03/28 11:08:44;;;;;;;0.33;0.33;;;12.90;96.30;;;;;;4882750;29;20771;-61
2024/03/28 11:11:10;;;;;;;0.30;0.30;;;12.80;97.20;;;;;;4882115;29;20412;-63
2024/03/28 11:13:36;;;;;;;0.30;0.30;;;12.90;97.50;;;;;;4882269;29;20457;-60
2024/03/28 11:16:06;;;;;;;0.30;0.30;;;13.20;97.30;;;;;;4881904;29;20225;-62
2024/03/28 11:18:32;;;;;;;0.30;0.30;;;13.40;96.80;;;;;;4882246;29;20376;-62
2024/03/28 11:21:04;;;;;;;0.30;0.30;;;13.40;95.90;;;;;;4882485;29;20418;-59
2024/03/28 11:23:31;;;;;;;0.30;0.30;;;13.50;96.50;;;;;;4882284;29;20560;-63
2024/03/28 11:26:03;;;;;;;0.30;0.30;;;13.60;96.30;;;;;;4882013;29;20836;-60
2024/03/28 11:28:31;;;;;;;0.40;0.40;;;13.80;94.70;;;;;;4882047;29;20380;-61
2024/03/28 11:30:57;;;;;;;0.30;0.30;;;13.80;94.60;;;;;;4882046;29;20410;-61
2024/03/28 11:33:30;;;;;;;0.40;0.40;;;13.80;95.50;;;;;;4881799;29;20436;-62
2024/03/28 11:36:00;;;;;;;0.30;0.30;;;13.80;95.40;;;;;;4881517;29;20945;-59
2024/03/28 11:38:26;;;;;;;0.30;0.20;;;13.90;94.40;;;;;;4881908;29;20384;-63
2024/03/28 11:40:52;;;;;;;0.30;0.30;;;14.00;94.90;;;;;;4881782;29;21003;-60
2024/03/28 11:43:20;;;;;;;0.30;0.30;;;14.10;93.50;;;;;;4881835;29;20817;-64
2024/03/28 11:45:57;;;;;;;0.30;0.30;;;14.00;94.20;;;;;;4881597;29;20416;-64
2024/03/28 11:48:25;;;;;;;0.30;0.30;;;14.00;93.70;;;;;;4881657;29;20433;-64
2024/03/28 11:50:52;;;;;;;0.30;0.30;;;14.00;93.90;;;;;;4881682;29;20433;-62
2024/03/28 11:53:17;;;;;;;0.30;0.30;;;14.10;93.00;;;;;;4881520;29;20458;-62
2024/03/28 11:55:45;;;;;;;0.30;0.30;;;14.10;92.40;;;;;;4881154;29;20448;-59
2024/03/28 11:58:24;;;;;;;0.30;0.30;;;14.30;92.50;;;;;;4881183;29;20911;-62
2024/03/28 12:00:59;;;;;;;0.30;0.30;;;14.20;92.10;;;;;;4881386;29;20421;-61
2024/03/28 12:03:25;;;;;;;0.30;0.30;;;14.30;91.40;;;;;;4895768;29;20421;-63
2024/03/28 12:05:52;;;;;;;0.30;0.30;;;14.40;92.20;;;;;;4881033;29;20941;-60
2024/03/28 12:08:22;;;;;;;0.30;0.30;;;14.60;92.00;;;;;;4880079;29;20450;-62
2024/03/28 12:10:48;;;;;;;0.30;0.30;;;14.60;91.20;;;;;;4881204;29;20452;-60
2024/03/28 12:13:14;;;;;;;0.30;0.30;;;14.80;91.40;;;;;;4881035;29;20438;-64
2024/03/28 12:15:39;;;;;;;0.30;0.30;;;15.00;90.10;;;;;;4880536;29;20442;-61
2024/03/28 12:18:05;;;;;;;0.30;0.30;;;15.00;90.10;;;;;;4880915;29;20192;-63
2024/03/28 12:20:32;;;;;;;0.30;0.30;;;15.00;90.00;;;;;;4880920;29;20195;-61
2024/03/28 12:22:59;;;;;;;0.30;0.30;;;15.00;90.20;;;;;;4880863;29;20327;-61
2024/03/28 12:25:25;;;;;;;0.33;0.33;;;14.90;88.70;;;;;;4880505;29;20418;-62
2024/03/28 12:28:03;;;;;;;0.30;0.30;;;14.90;90.30;;;;;;4880864;29;20417;-62
2024/03/28 12:30:30;;;;;;;0.40;0.40;;;14.90;87.20;;;;;;4880964;29;20442;-61
2024/03/28 12:33:05;;;;;;;0.30;0.20;;;14.80;87.40;;;;;;4880623;29;20550;-64
2024/03/28 12:35:33;;;;;;;0.30;0.30;;;14.70;88.70;;;;;;4879413;29;20486;-61
2024/03/28 12:38:00;;;;;;;0.30;0.30;;;14.80;88.00;;;;;;4879674;29;20420;-61
2024/03/28 12:40:27;;;;;;;0.30;0.30;;;14.80;87.40;;;;;;4880557;29;20905;-64
2024/03/28 12:42:54;;;;;;;0.40;0.40;;;14.90;88.50;;;;;;4880662;29;20429;-64
2024/03/28 12:45:25;;;;;;;0.30;0.30;;;15.10;88.30;;;;;;4880172;29;20952;-62
2024/03/28 12:47:52;;;;;;;0.30;0.30;;;15.30;88.40;;;;;;4880746;29;20831;-60
2024/03/28 12:50:22;;;;;;;0.30;0.30;;;15.30;86.20;;;;;;4880367;29;20427;-64
2024/03/28 12:52:52;;;;;;;0.30;0.30;;;15.30;89.30;;;;;;4880124;29;20533;-62
2024/03/28 12:55:18;;;;;;;0.30;0.30;;;15.50;88.50;;;;;;4880109;29;20415;-63
2024/03/28 12:57:45;;;;;;;0.30;0.20;;;15.50;85.90;;;;;;4880419;29;20438;-62
2024/03/28 13:00:12;;;;;;;0.30;0.20;;;15.40;84.30;;;;;;4880244;29;20858;-64
2024/03/28 13:02:38;;;;;;;0.37;0.37;;;15.30;82.10;;;;;;4880411;29;20395;-62
2024/03/28 13:05:04;;;;;;;0.30;0.30;;;15.40;82.50;;;;;;4880380;29;20630;-65
2024/03/28 13:07:31;;;;;;;0.30;0.30;;;15.50;79.40;;;;;;4880036;29;20233;-59
2024/03/28 13:09:57;;;;;;;0.30;0.30;;;15.40;80.60;;;;;;4880199;29;20843;-63
2024/03/28 13:12:23;;;;;;;0.30;0.30;;;15.30;82.00;;;;;;4880079;29;20480;-61
2024/03/28 13:14:48;;;;;;;0.33;0.33;;;15.20;81.10;;;;;;4879849;29;20414;-60
2024/03/28 13:17:17;;;;;;;0.30;0.30;;;15.20;79.50;;;;;;4879791;29;20512;-60
2024/03/28 13:19:47;;;;;;;0.30;0.30;;;15.00;81.80;;;;;;4879950;29;20189;-63
2024/03/28 13:22:13;;;;;;;0.40;0.40;;;14.90;79.60;;;;;;4879983;29;20786;-62
2024/03/28 13:24:39;;;;;;;0.30;0.30;;;14.80;81.90;;;;;;4879869;29;20500;-60
2024/03/28 13:27:04;;;;;;;0.30;0.30;;;14.60;82.00;;;;;;4879908;29;20424;-64
2024/03/28 13:29:30;;;;;;;0.30;0.30;;;14.60;83.10;;;;;;4879853;29;20188;-63
2024/03/28 13:31:56;;;;;;;0.40;0.40;;;14.60;83.80;;;;;;4879757;29;20175;-64
2024/03/28 13:34:21;;;;;;;0.40;0.40;;;14.60;83.80;;;;;;4879610;29;20975;-60
2024/03/28 13:36:51;;;;;;;0.30;0.30;;;14.60;82.40;;;;;;4879432;29;20200;-62
2024/03/28 13:39:16;;;;;;;0.30;0.30;;;14.50;82.70;;;;;;4879695;29;20239;-61
2024/03/28 13:41:42;;;;;;;0.60;0.60;;;14.50;84.40;;;;;;4879702;29;20420;-61
2024/03/28 13:44:08;;;;;;;0.30;0.30;;;14.60;84.20;;;;;;4879590;29;20180;-61
2024/03/28 13:46:33;;;;;;;0.30;0.30;;;14.60;84.10;;;;;;4879095;29;20199;-61
2024/03/28 13:48:59;;;;;;;0.30;0.20;;;14.60;87.40;;;;;;4879409;29;20192;-60
2024/03/28 13:51:26;;;;;;;0.30;0.30;;;14.50;90.80;;;;;;4879591;29;20195;-63
2024/03/28 13:53:52;;;;;;;0.30;0.30;;;14.30;91.30;;;;;;4879551;29;20270;-60
2024/03/28 13:56:17;;;;;;;0.30;0.30;;;14.00;92.10;;;;;;4879185;29;20943;-63
2024/03/28 13:58:43;;;;;;;0.30;0.30;;;13.90;92.20;;;;;;4879341;29;20478;-62
2024/03/28 14:01:08;;;;;;;0.30;0.30;;;13.80;92.60;;;;;;4879331;29;20190;-62
2024/03/28 14:03:34;;;;;;;0.40;0.40;;;13.80;92.60;;;;;;4879330;29;20643;-61
2024/03/28 14:06:03;;;;;;;0.30;0.30;;;13.90;92.30;;;;;;4878849;29;20210;-61
2024/03/28 14:08:29;;;;;;;0.30;0.20;;;14.10;92.90;;;;;;4879481;29;20328;-65
2024/03/28 14:10:55;;;;;;;0.30;0.30;;;14.20;92.20;;;;;;4879295;29;20428;-60
2024/03/28 14:13:21;;;;;;;0.40;0.40;;;14.20;91.40;;;;;;4879249;29;20887;-63
2024/03/28 14:15:48;;;;;;;0.30;0.30;;;14.20;91.70;;;;;;4878842;29;20454;-60
2024/03/28 14:18:13;;;;;;;0.30;0.30;;;14.30;91.80;;;;;;4879554;29;20856;-61
2024/03/28 14:20:39;;;;;;;0.30;0.30;;;14.20;92.10;;;;;;4879274;29;20428;-60
2024/03/28 14:23:08;;;;;;;0.43;0.43;;;14.30;91.80;;;;;;4879040;29;20656;-63
2024/03/28 14:25:34;;;;;;;0.30;0.30;;;14.30;91.30;;;;;;4878862;29;20921;-59
2024/03/28 14:28:00;;;;;;;0.30;0.20;;;14.30;90.90;;;;;;4879182;29;20584;-60
2024/03/28 14:30:27;;;;;;;0.40;0.40;;;14.20;90.70;;;;;;4879425;29;20420;-60
2024/03/28 14:32:53;;;;;;;0.30;0.30;;;14.20;88.90;;;;;;4882208;29;20528;-62
2024/03/28 14:35:19;;;;;;;0.30;0.30;;;14.10;88.00;;;;;;4882581;29;20780;-63
2024/03/28 14:37:48;;;;;;;0.30;0.30;;;14.10;84.70;;;;;;4882982;29;20172;-60
2024/03/28 14:40:14;;;;;;;0.30;0.30;;;13.90;87.50;;;;;;4882868;29;20539;-61
2024/03/28 14:42:40;;;;;;;0.30;0.30;;;13.80;89.00;;;;;;4882863;29;20452;-61
2024/03/28 14:45:07;;;;;;;0.30;0.30;;;13.80;90.70;;;;;;4882476;29;20258;-63
2024/03/28 14:47:33;;;;;;;0.30;0.30;;;13.60;91.30;;;;;;4882548;29;20294;-61
2024/03/28 14:49:59;;;;;;;0.40;0.40;;;13.40;92.00;;;;;;4882540;29;20441;-62
2024/03/28 14:52:24;;;;;;;0.30;0.30;;;13.30;92.80;;;;;;4882544;29;20386;-61
2024/03/28 14:54:50;;;;;;;0.40;0.40;;;13.30;92.40;;;;;;4882469;29;20420;-62
2024/03/28 14:57:25;;;;;;;0.30;0.30;;;13.20;92.20;;;;;;4881238;29;20646;-61
2024/03/28 14:59:51;;;;;;;0.30;0.30;;;13.20;91.30;;;;;;4882653;29;20183;-63
2024/03/28 15:02:17;;;;;;;0.30;0.30;;;13.20;91.80;;;;;;4882330;29;20416;-60
2024/03/28 15:04:43;;;;;;;0.30;0.30;;;13.20;91.60;;;;;;4882247;29;20736;-63
2024/03/28 15:07:08;;;;;;;0.30;0.30;;;13.30;92.20;;;;;;4896281;29;20502;-61
2024/03/28 15:09:34;;;;;;;0.30;0.30;;;13.40;92.70;;;;;;4882496;29;20235;-62
2024/03/28 15:11:59;;;;;;;0.30;0.30;;;13.50;92.50;;;;;;4882218;29;20183;-61
2024/03/28 15:14:28;;;;;;;0.30;0.30;;;13.40;92.00;;;;;;4880917;29;20606;-61
2024/03/28 15:16:54;;;;;;;0.30;0.30;;;13.40;92.40;;;;;;4881899;29;20195;-65
2024/03/28 15:19:19;;;;;;;0.30;0.30;;;13.40;90.90;;;;;;4882796;29;20507;-60
2024/03/28 15:21:48;;;;;;;0.40;0.40;;;13.40;90.10;;;;;;4882280;29;20215;-63
2024/03/28 15:24:15;;;;;;;0.40;0.40;;;13.40;90.60;;;;;;4882215;29;20186;-62
2024/03/28 15:26:40;;;;;;;0.30;0.30;;;13.30;88.70;;;;;;4881701;29;20502;-62
2024/03/28 15:29:07;;;;;;;0.93;0.70;;;13.30;88.10;;;;;;4882162;29;20495;-60
2024/03/28 15:31:33;;;;;;;0.30;0.30;;;13.30;84.30;;;;;;4881914;29;20187;-63
2024/03/28 15:33:59;;;;;;;0.30;0.30;;;13.20;84.10;;;;;;4882002;29;20497;-61
2024/03/28 15:36:25;;;;;;;0.40;0.40;;;13.20;85.70;;;;;;4881741;29;20468;-61
2024/03/28 15:38:51;;;;;;;0.40;0.40;;;13.10;86.80;;;;;;4881911;29;20421;-61
2024/03/28 15:41:17;;;;;;;0.30;0.30;;;13.00;86.70;;;;;;4881669;29;20415;-61
2024/03/28 15:43:42;;;;;;;0.30;0.30;;;12.90;87.50;;;;;;4881734;29;20186;-63
2024/03/28 15:46:09;;;;;;;0.30;0.30;;;12.90;87.50;;;;;;4879754;29;20741;-60
2024/03/28 15:48:35;;;;;;;0.30;0.30;;;12.80;86.60;;;;;;4863127;29;20550;-63
2024/03/28 15:51:01;;;;;;;0.30;0.30;;;12.90;85.80;;;;;;4863991;29;20424;-59
2024/03/28 15:53:31;;;;;;;0.30;0.30;;;12.90;84.80;;;;;;4862910;29;20217;-63
2024/03/28 15:56:01;;;;;;;0.37;0.37;;;12.90;85.20;;;;;;4862888;29;20435;-59
2024/03/28 15:58:27;;;;;;;0.30;0.30;;;12.90;85.80;;;;;;4878008;29;20446;-62
2024/03/28 16:00:53;;;;;;;0.30;0.30;;;13.00;84.80;;;;;;4881226;29;20945;-61
2024/03/28 16:03:18;;;;;;;0.30;0.30;;;13.00;84.10;;;;;;4879890;29;20206;-63
2024/03/28 16:05:47;;;;;;;0.40;0.40;;;13.00;82.90;;;;;;4881209;29;20206;-63
2024/03/28 16:08:13;;;;;;;0.30;0.30;;;13.00;82.80;;;;;;4881449;29;20246;-62
2024/03/28 16:10:38;;;;;;;0.40;0.40;;;13.00;82.60;;;;;;4881370;29;20441;-61
2024/03/28 16:13:04;;;;;;;0.30;0.30;;;13.00;82.00;;;;;;4881172;29;20210;-60
2024/03/28 16:15:30;;;;;;;0.30;0.30;;;13.00;81.70;;;;;;4880946;29;20211;-62
2024/03/28 16:17:55;;;;;;;0.30;0.30;;;13.00;82.40;;;;;;4881443;29;20178;-60
2024/03/28 16:20:21;;;;;;;0.30;0.30;;;13.00;81.20;;;;;;4881193;29;20184;-60
2024/03/28 16:22:48;;;;;;;0.30;0.30;;;12.90;81.90;;;;;;4881329;29;20538;-62
2024/03/28 16:25:14;;;;;;;0.30;0.30;;;12.90;82.10;;;;;;4880960;29;20510;-62
2024/03/28 16:27:39;;;;;;;0.30;0.30;;;12.90;82.30;;;;;;4881075;29;20869;-61
2024/03/28 16:30:05;;;;;;;0.40;0.40;;;12.90;82.50;;;;;;4881094;29;20530;-61
2024/03/28 16:32:31;;;;;;;0.30;0.30;;;12.80;83.00;;;;;;4880996;29;20550;-61
2024/03/28 16:34:57;;;;;;;0.30;0.30;;;12.80;83.20;;;;;;4880784;29;20427;-64
2024/03/28 16:37:23;;;;;;;0.30;0.30;;;12.80;83.80;;;;;;4880714;29;20224;-59
2024/03/28 16:39:48;;;;;;;0.30;0.30;;;12.80;83.40;;;;;;4880983;29;20182;-63
2024/03/28 16:42:14;;;;;;;0.30;0.30;;;12.80;83.80;;;;;;4895088;29;20171;-63
2024/03/28 16:44:39;;;;;;;0.30;0.30;;;12.90;83.50;;;;;;4880642;29;20214;-63
2024/03/28 16:47:08;;;;;;;0.30;0.30;;;12.90;85.60;;;;;;4880665;29;20709;-61
2024/03/28 16:49:33;;;;;;;0.30;0.30;;;12.90;87.20;;;;;;4880740;29;20645;-61
2024/03/28 16:52:01;;;;;;;0.30;0.30;;;12.80;83.70;;;;;;4880662;29;20423;-61
2024/03/28 16:54:27;;;;;;;0.30;0.30;;;12.70;82.30;;;;;;4879834;29;20211;-60
2024/03/28 16:56:52;;;;;;;0.30;0.30;;;12.50;82.00;;;;;;4880149;29;20434;-61
2024/03/28 16:59:18;;;;;;;0.30;0.30;;;12.40;83.40;;;;;;4880584;29;20175;-61
2024/03/28 17:01:44;;;;;;;0.30;0.30;;;12.20;83.60;;;;;;4880331;29;20175;-59
2024/03/28 17:04:10;;;;;;;0.40;0.40;;;12.10;85.00;;;;;;4880331;29;20918;-59
2024/03/28 17:06:35;;;;;;;0.30;0.30;;;11.90;85.40;;;;;;4879876;29;20270;-63
2024/03/28 17:09:01;;;;;;;0.30;0.30;;;11.80;86.10;;;;;;4880461;29;20181;-60
2024/03/28 17:11:27;;;;;;;0.30;0.30;;;11.60;86.60;;;;;;4880358;29;20181;-61
2024/03/28 17:13:53;;;;;;;0.30;0.30;;;11.50;87.60;;;;;;4880357;29;20217;-61
2024/03/28 17:16:20;;;;;;;0.33;0.33;;;11.40;88.30;;;;;;4879853;29;20810;-62
2024/03/28 17:18:46;;;;;;;0.30;0.30;;;11.30;87.80;;;;;;4880224;29;20773;-62
2024/03/28 17:21:12;;;;;;;0.30;0.30;;;11.20;88.60;;;;;;4880314;29;20461;-63
2024/03/28 17:23:37;;;;;;;0.30;0.30;;;11.10;90.00;;;;;;4880167;29;20176;-61
2024/03/28 17:26:04;;;;;;;0.37;0.37;;;11.00;90.40;;;;;;4879975;29;20841;-60
2024/03/28 17:28:30;;;;;;;0.30;0.30;;;10.80;90.80;;;;;;4880041;29;20181;-62
2024/03/28 17:30:56;;;;;;;0.30;0.30;;;10.70;90.90;;;;;;4880017;29;20236;-61
2024/03/28 17:33:24;;;;;;;0.30;0.30;;;10.60;90.80;;;;;;4879808;29;20200;-65
2024/03/28 17:36:00;;;;;;;0.30;0.30;;;10.60;91.50;;;;;;4879745;29;20228;-61
2024/03/28 17:38:25;;;;;;;0.30;0.30;;;10.40;92.10;;;;;;4878686;29;20534;-61
2024/03/28 17:40:51;;;;;;;0.30;0.30;;;10.40;92.20;;;;;;4880255;29;20172;-60
2024/03/28 17:43:18;;;;;;;0.30;0.30;;;10.30;92.50;;;;;;4879726;29;20184;-62
2024/03/28 17:45:44;;;;;;;0.30;0.30;;;10.20;92.80;;;;;;4879403;29;20545;-60
2024/03/28 17:48:10;;;;;;;0.40;0.40;;;10.10;93.20;;;;;;4879802;29;20196;-63
2024/03/28 17:50:36;;;;;;;0.40;0.40;;;10.00;92.80;;;;;;4893796;29;20216;-61
2024/03/28 17:53:01;;;;;;;0.40;0.40;;;10.00;93.00;;;;;;4879473;29;20219;-63